createdAt,value
2022-11-24T00:01:15.563Z,-0.80
2022-11-24T00:03:44.215Z,-0.70
2022-11-24T00:06:14.063Z,-0.70
2022-11-24T00:08:43.881Z,-0.70
2022-11-24T00:11:13.970Z,-0.60
2022-11-24T00:13:42.553Z,-0.70
2022-11-24T00:16:14.677Z,-0.70
2022-11-24T00:18:44.400Z,-0.70
2022-11-24T00:21:13.160Z,-0.80
2022-11-24T00:23:41.408Z,-0.80
2022-11-24T00:26:11.829Z,-0.80
2022-11-24T00:28:40.834Z,-0.80
2022-11-24T00:31:19.153Z,-0.70
2022-11-24T00:33:48.176Z,-0.80
2022-11-24T00:36:17.006Z,-0.70
2022-11-24T00:38:47.055Z,-0.60
2022-11-24T00:41:15.452Z,-0.70
2022-11-24T00:43:43.566Z,-0.70
2022-11-24T00:46:11.703Z,-0.70
2022-11-24T00:48:41.253Z,-0.60
2022-11-24T00:51:11.247Z,-0.60
2022-11-24T00:53:39.506Z,-0.70
2022-11-24T00:56:08.229Z,-0.70
2022-11-24T00:58:37.121Z,-0.70
2022-11-24T01:01:07.078Z,-0.70
2022-11-24T01:03:35.800Z,-0.70
2022-11-24T01:06:06.600Z,-0.80
2022-11-24T01:08:35.244Z,-0.80
2022-11-24T01:11:11.247Z,-0.80
2022-11-24T01:13:39.716Z,-0.80
2022-11-24T01:16:08.415Z,-0.70
2022-11-24T01:18:36.545Z,-0.70
2022-11-24T01:21:10.125Z,-0.70
2022-11-24T01:23:38.475Z,-0.70
2022-11-24T01:26:08.226Z,-0.70
2022-11-24T01:28:38.558Z,-0.70
2022-11-24T01:31:10.768Z,-0.70
2022-11-24T01:33:39.160Z,-0.70
2022-11-24T01:36:08.800Z,-0.70
2022-11-24T01:38:36.896Z,-0.60
2022-11-24T01:41:07.976Z,-0.70
2022-11-24T01:43:36.325Z,-0.70
2022-11-24T01:46:12.043Z,-0.60
2022-11-24T01:48:44.796Z,-0.60
2022-11-24T01:51:17.768Z,-0.60
2022-11-24T01:53:55.215Z,-0.70
2022-11-24T01:56:23.792Z,-0.70
2022-11-24T01:58:53.738Z,-0.60
2022-11-24T02:01:22.135Z,-0.70
2022-11-24T02:03:50.907Z,-0.80
2022-11-24T02:06:23.664Z,-0.70
2022-11-24T02:08:56.293Z,-0.70
2022-11-24T02:11:27.657Z,-0.70
2022-11-24T02:13:57.206Z,-0.80
2022-11-24T02:16:25.332Z,-0.80
2022-11-24T02:18:54.067Z,-0.70
2022-11-24T02:21:23.504Z,-0.70
2022-11-24T02:23:58.490Z,-0.70
2022-11-24T02:26:44.514Z,-0.80
2022-11-24T02:29:14.228Z,-0.80
2022-11-24T02:31:45.536Z,-0.80
2022-11-24T02:34:13.529Z,-0.70
2022-11-24T02:36:41.623Z,-0.70
2022-11-24T02:39:12.348Z,-0.70
2022-11-24T02:41:43.972Z,-0.70
2022-11-24T02:44:14.059Z,-0.70
2022-11-24T02:46:42.462Z,-0.70
2022-11-24T02:49:10.540Z,-0.80
2022-11-24T02:51:38.633Z,-0.70
2022-11-24T02:54:06.746Z,-0.70
2022-11-24T02:56:34.814Z,-0.80
2022-11-24T02:59:04.327Z,-0.80
2022-11-24T03:01:32.443Z,-0.70
2022-11-24T03:04:00.521Z,-0.80
2022-11-24T03:06:28.614Z,-0.70
2022-11-24T03:08:56.704Z,-0.70
2022-11-24T03:11:24.760Z,-0.70
2022-11-24T03:13:53.107Z,-0.70
2022-11-24T03:16:22.754Z,-0.70
2022-11-24T03:18:52.217Z,-0.80
2022-11-24T03:21:20.343Z,-0.80
2022-11-24T03:23:48.495Z,-0.70
2022-11-24T03:26:18.685Z,-0.70
2022-11-24T03:28:46.742Z,-0.60
2022-11-24T03:31:15.344Z,-0.60
2022-11-24T03:33:44.795Z,-0.60
2022-11-24T03:36:12.884Z,-0.70
2022-11-24T03:38:41.013Z,-0.70
2022-11-24T03:41:09.053Z,-0.70
2022-11-24T03:43:43.197Z,-0.70
2022-11-24T03:46:12.541Z,-0.80
2022-11-24T03:48:41.052Z,-0.70
2022-11-24T03:51:11.854Z,-0.70
2022-11-24T03:53:40.119Z,-0.70
2022-11-24T03:56:08.535Z,-0.70
2022-11-24T03:58:36.682Z,-0.70
2022-11-24T04:01:04.882Z,-0.70
2022-11-24T04:03:32.998Z,-0.70
2022-11-24T04:06:01.035Z,-0.70
2022-11-24T04:08:30.526Z,-0.70
2022-11-24T04:10:59.109Z,-0.70
2022-11-24T04:13:26.976Z,-0.60
2022-11-24T04:15:55.613Z,-0.50
2022-11-24T04:18:23.935Z,-0.60
2022-11-24T04:20:52.807Z,-0.50
2022-11-24T04:23:20.945Z,-0.60
2022-11-24T04:25:50.596Z,-0.60
2022-11-24T04:28:18.653Z,-0.70
2022-11-24T04:30:46.737Z,-0.70
2022-11-24T04:33:15.441Z,-0.70
2022-11-24T04:35:43.444Z,-0.70
2022-11-24T04:38:11.535Z,-0.80
2022-11-24T04:40:39.563Z,-0.80
2022-11-24T04:43:10.110Z,-0.80
2022-11-24T04:45:38.208Z,-0.80
2022-11-24T04:48:06.879Z,-0.70
2022-11-24T04:50:34.935Z,-0.70
2022-11-24T04:53:03.027Z,-0.70
2022-11-24T04:55:31.120Z,-0.70
2022-11-24T04:57:59.169Z,-0.70
2022-11-24T05:00:28.529Z,-0.70
2022-11-24T05:02:56.732Z,-0.70
2022-11-24T05:05:24.770Z,-0.70
2022-11-24T05:07:52.795Z,-0.50
2022-11-24T05:10:38.699Z,-0.50
2022-11-24T05:13:12.971Z,-0.60
2022-11-24T05:15:43.253Z,-0.60
2022-11-24T05:18:15.302Z,-0.50
2022-11-24T05:20:44.659Z,-0.60
2022-11-24T05:23:13.425Z,-0.60
2022-11-24T05:25:47.294Z,-0.60
2022-11-24T05:28:16.099Z,-0.50
2022-11-24T05:30:46.293Z,-0.50
2022-11-24T05:33:18.991Z,-0.60
2022-11-24T05:35:47.560Z,-0.50
2022-11-24T05:38:15.720Z,-0.50
2022-11-24T05:40:44.681Z,-0.50
2022-11-24T05:43:12.927Z,-0.50
2022-11-24T05:45:41.251Z,-0.50
2022-11-24T05:48:14.212Z,-0.50
2022-11-24T05:50:42.722Z,-0.60
2022-11-24T05:53:13.087Z,-0.60
2022-11-24T05:55:41.754Z,-0.60
2022-11-24T05:58:11.126Z,-0.50
2022-11-24T06:00:39.179Z,-0.50
2022-11-24T06:03:07.233Z,-0.50
2022-11-24T06:05:36.587Z,-0.40
2022-11-24T06:08:04.651Z,-0.40
2022-11-24T06:10:32.618Z,-0.50
2022-11-24T06:13:11.428Z,-0.50
2022-11-24T06:15:40.760Z,-0.50
2022-11-24T06:18:08.790Z,-0.50
2022-11-24T06:20:38.250Z,-0.50
2022-11-24T06:23:06.245Z,-0.50
2022-11-24T06:25:34.269Z,-0.60
2022-11-24T06:28:04.667Z,-0.50
2022-11-24T06:30:32.714Z,-0.60
2022-11-24T06:33:00.804Z,-0.60
2022-11-24T06:35:28.758Z,-0.60
2022-11-24T06:37:58.144Z,-0.60
2022-11-24T06:40:26.064Z,-0.60
2022-11-24T06:42:54.045Z,-0.60
2022-11-24T06:45:21.987Z,-0.50
2022-11-24T06:47:50.055Z,-0.40
2022-11-24T06:50:18.203Z,-0.40
2022-11-24T06:52:46.160Z,-0.30
2022-11-24T06:55:15.965Z,-0.40
2022-11-24T06:57:43.897Z,-0.30
2022-11-24T07:00:12.774Z,-0.30
2022-11-24T07:02:45.736Z,-0.30
2022-11-24T07:05:14.195Z,-0.20
2022-11-24T07:07:42.589Z,-0.30
2022-11-24T07:10:10.814Z,-0.40
2022-11-24T07:12:40.107Z,-0.40
2022-11-24T07:15:09.388Z,-0.50
2022-11-24T07:17:38.214Z,-0.50
2022-11-24T07:20:08.048Z,-0.40
2022-11-24T07:22:36.495Z,-0.40
2022-11-24T07:25:07.325Z,-0.20
2022-11-24T07:27:35.253Z,-0.20
2022-11-24T07:30:05.256Z,-0.20
2022-11-24T07:32:33.186Z,-0.20
2022-11-24T07:35:01.190Z,-0.30
2022-11-24T07:37:31.566Z,-0.30
2022-11-24T07:39:59.914Z,-0.30
2022-11-24T07:42:28.471Z,-0.30
2022-11-24T07:44:56.591Z,-0.30
2022-11-24T07:47:25.966Z,-0.20
2022-11-24T07:49:53.999Z,-0.20
2022-11-24T07:52:21.950Z,-0.20
2022-11-24T07:54:49.899Z,-0.20
2022-11-24T07:57:17.804Z,-0.20
2022-11-24T07:59:45.697Z,-0.20
2022-11-24T08:02:14.395Z,-0.20
2022-11-24T08:04:43.672Z,-0.20
2022-11-24T08:07:11.710Z,-0.20
2022-11-24T08:09:39.775Z,-0.10
2022-11-24T08:12:08.165Z,-0.20
2022-11-24T08:14:36.435Z,-0.20
2022-11-24T08:17:04.750Z,-0.10
2022-11-24T08:19:33.244Z,-0.10
2022-11-24T08:22:02.521Z,-0.10
2022-11-24T08:24:31.843Z,0.00
2022-11-24T08:27:00.033Z,0.00
2022-11-24T08:29:29.541Z,0.10
2022-11-24T08:31:57.882Z,0.10
2022-11-24T08:34:29.563Z,0.20
2022-11-24T08:36:57.603Z,0.30
2022-11-24T08:39:26.996Z,0.20
2022-11-24T08:41:54.892Z,0.30
2022-11-24T08:44:22.941Z,0.20
2022-11-24T08:46:51.087Z,0.20
2022-11-24T08:49:19.068Z,0.20
2022-11-24T08:51:48.558Z,0.20
2022-11-24T08:54:18.720Z,0.20
2022-11-24T08:56:50.609Z,0.30
2022-11-24T08:59:18.676Z,0.20
2022-11-24T09:01:46.801Z,0.20
2022-11-24T09:04:14.903Z,0.20
2022-11-24T09:06:42.891Z,0.30
2022-11-24T09:09:11.059Z,0.20
2022-11-24T09:11:39.635Z,0.20
2022-11-24T09:14:08.921Z,0.20
2022-11-24T09:16:37.875Z,0.20
2022-11-24T09:19:08.015Z,0.20
2022-11-24T09:21:39.023Z,0.20
2022-11-24T09:24:08.455Z,0.10
2022-11-24T09:26:41.887Z,0.20
2022-11-24T09:29:15.654Z,0.30
2022-11-24T09:31:43.773Z,0.30
2022-11-24T09:34:15.465Z,0.30
2022-11-24T09:36:43.508Z,0.40
2022-11-24T09:39:11.839Z,0.40
2022-11-24T09:41:48.610Z,0.50
2022-11-24T09:44:38.936Z,0.50
2022-11-24T09:47:15.714Z,0.50
2022-11-24T09:49:51.521Z,0.50
2022-11-24T09:52:25.789Z,0.60
2022-11-24T09:55:00.256Z,0.50
2022-11-24T09:57:37.492Z,0.60
2022-11-24T10:00:13.925Z,0.50
2022-11-24T10:02:41.958Z,0.50
2022-11-24T10:05:13.102Z,0.50
2022-11-24T10:07:46.320Z,0.50
2022-11-24T10:10:24.304Z,0.50
2022-11-24T10:13:04.038Z,0.50
2022-11-24T10:15:45.783Z,0.60
2022-11-24T10:18:44.305Z,0.70
2022-11-24T10:21:26.835Z,0.50
2022-11-24T10:24:10.017Z,0.50
2022-11-24T10:26:39.691Z,0.50
2022-11-24T10:29:21.546Z,0.40
2022-11-24T10:31:55.479Z,0.50
2022-11-24T10:34:29.621Z,0.40
2022-11-24T10:37:02.995Z,0.60
2022-11-24T10:39:36.508Z,0.60
2022-11-24T10:42:12.798Z,0.60
2022-11-24T10:44:42.104Z,0.60
2022-11-24T10:47:22.708Z,0.60
2022-11-24T10:49:56.985Z,0.50
2022-11-24T10:52:26.389Z,0.50
2022-11-24T10:54:56.734Z,0.50
2022-11-24T10:57:33.392Z,0.50
2022-11-24T11:00:02.619Z,0.50
2022-11-24T11:02:38.025Z,0.50
2022-11-24T11:05:37.876Z,0.40
2022-11-24T11:08:20.881Z,0.40
2022-11-24T11:10:50.651Z,0.50
2022-11-24T11:13:22.888Z,0.50
2022-11-24T11:15:51.179Z,0.60
2022-11-24T11:18:21.301Z,0.70
2022-11-24T11:20:55.089Z,0.60
2022-11-24T11:23:27.447Z,0.60
2022-11-24T11:26:20.445Z,0.50
2022-11-24T11:31:15.616Z,0.40
2022-11-24T11:34:50.887Z,0.50
2022-11-24T11:37:20.825Z,0.50
2022-11-24T11:39:50.487Z,0.50
2022-11-24T11:42:53.699Z,0.50
2022-11-24T11:45:16.043Z,0.40
2022-11-24T11:47:48.018Z,0.50
2022-11-24T11:50:19.153Z,0.50
2022-11-24T11:53:08.144Z,0.50
2022-11-24T11:55:56.487Z,0.60
2022-11-24T11:58:50.870Z,0.50
2022-11-24T12:01:34.908Z,0.50
2022-11-24T12:04:16.014Z,0.40
2022-11-24T12:07:13.395Z,0.50
2022-11-24T12:09:53.116Z,0.50
2022-11-24T12:12:52.243Z,0.60
2022-11-24T12:15:29.127Z,0.60
2022-11-24T12:18:05.713Z,0.70
2022-11-24T12:20:47.206Z,0.60
2022-11-24T12:23:26.673Z,0.60
2022-11-24T12:26:01.045Z,0.60
2022-11-24T12:28:46.074Z,0.60
2022-11-24T12:31:23.851Z,0.60
2022-11-24T12:34:10.099Z,0.60
2022-11-24T12:36:53.532Z,0.60
2022-11-24T12:39:29.131Z,0.70
2022-11-24T12:42:10.112Z,0.70
2022-11-24T12:44:56.022Z,0.70
2022-11-24T12:47:30.238Z,0.70
2022-11-24T12:50:09.284Z,0.60
2022-11-24T12:52:41.409Z,0.70
2022-11-24T12:55:18.542Z,0.80
2022-11-24T12:57:54.846Z,0.80
2022-11-24T13:00:25.095Z,0.70
2022-11-24T13:03:14.690Z,0.70
2022-11-24T13:05:51.209Z,0.70
2022-11-24T13:08:19.811Z,0.70
2022-11-24T13:10:57.823Z,0.70
2022-11-24T13:13:31.397Z,0.70
2022-11-24T13:16:35.163Z,0.70
2022-11-24T13:19:03.444Z,0.70
2022-11-24T13:21:33.925Z,0.70
2022-11-24T13:24:04.347Z,0.70
2022-11-24T13:26:47.273Z,0.70
2022-11-24T13:29:31.410Z,0.70
2022-11-24T13:32:52.730Z,0.70
2022-11-24T13:35:20.709Z,0.60
2022-11-24T13:37:52.768Z,0.60
2022-11-24T13:40:54.281Z,0.50
2022-11-24T13:43:30.972Z,0.40
2022-11-24T13:45:58.974Z,0.40
2022-11-24T13:49:01.705Z,0.40
2022-11-24T13:51:29.802Z,0.50
2022-11-24T13:54:00.851Z,0.60
2022-11-24T13:56:32.040Z,0.60
2022-11-24T13:59:16.146Z,0.50
2022-11-24T14:01:46.820Z,0.50
2022-11-24T14:04:36.260Z,0.60
2022-11-24T14:07:08.731Z,0.60
2022-11-24T14:09:43.059Z,0.60
2022-11-24T14:12:15.980Z,0.60
2022-11-24T14:14:46.790Z,0.50
2022-11-24T14:17:18.904Z,0.50
2022-11-24T14:19:48.636Z,0.50
2022-11-24T14:22:18.918Z,0.40
2022-11-24T14:24:52.135Z,0.40
2022-11-24T14:27:30.332Z,0.40
2022-11-24T14:30:02.101Z,0.30
2022-11-24T14:32:30.376Z,0.30
2022-11-24T14:34:58.626Z,0.30
2022-11-24T14:37:26.671Z,0.30
2022-11-24T14:39:54.610Z,0.20
2022-11-24T14:42:24.846Z,0.20
2022-11-24T14:44:56.328Z,0.40
2022-11-24T14:47:31.759Z,0.30
2022-11-24T14:50:09.460Z,0.40
2022-11-24T14:52:37.555Z,0.40
2022-11-24T14:55:21.869Z,0.30
2022-11-24T14:57:50.354Z,0.30
2022-11-24T15:00:21.049Z,0.20
2022-11-24T15:02:51.995Z,0.20
2022-11-24T15:05:21.692Z,0.20
2022-11-24T15:07:52.712Z,0.20
2022-11-24T15:10:33.627Z,0.30
2022-11-24T15:13:05.197Z,0.30
2022-11-24T15:15:36.537Z,0.30
2022-11-24T15:18:07.408Z,0.30
2022-11-24T15:20:41.762Z,0.30
2022-11-24T15:23:23.363Z,0.20
2022-11-24T15:25:54.271Z,0.30
2022-11-24T15:28:25.942Z,0.50
2022-11-24T15:30:55.316Z,0.40
2022-11-24T15:33:24.788Z,0.40
2022-11-24T15:35:52.871Z,0.40
2022-11-24T15:38:21.206Z,0.40
2022-11-24T15:40:51.430Z,0.30
2022-11-24T15:43:28.523Z,0.30
2022-11-24T15:45:56.437Z,0.30
2022-11-24T15:48:26.101Z,0.20
2022-11-24T15:50:55.105Z,0.30
2022-11-24T15:53:25.688Z,0.30
2022-11-24T15:55:54.157Z,0.20
2022-11-24T15:58:22.108Z,0.30
2022-11-24T16:00:50.900Z,0.20
2022-11-24T16:03:45.883Z,0.30
2022-11-24T16:06:15.023Z,0.30
2022-11-24T16:08:44.818Z,0.30
2022-11-24T16:11:12.983Z,0.30
2022-11-24T16:13:41.074Z,0.30
2022-11-24T16:16:09.342Z,0.30
2022-11-24T16:18:39.640Z,0.30
2022-11-24T16:21:09.773Z,0.20
2022-11-24T16:23:37.851Z,0.30
2022-11-24T16:26:06.279Z,0.30
2022-11-24T16:28:35.398Z,0.30
2022-11-24T16:31:03.362Z,0.30
2022-11-24T16:33:31.602Z,0.30
2022-11-24T16:35:59.558Z,0.30
2022-11-24T16:38:28.906Z,0.30
2022-11-24T16:40:57.139Z,0.30
2022-11-24T16:43:25.466Z,0.30
2022-11-24T16:46:04.056Z,0.30
2022-11-24T16:48:36.978Z,0.30
2022-11-24T16:51:06.689Z,0.20
2022-11-24T16:53:36.033Z,0.20
2022-11-24T16:56:04.151Z,0.20
2022-11-24T16:58:32.217Z,0.30
2022-11-24T17:01:04.173Z,0.20
2022-11-24T17:03:34.587Z,0.10
2022-11-24T17:06:02.602Z,0.10
2022-11-24T17:08:32.634Z,0.10
2022-11-24T17:11:06.668Z,0.00
2022-11-24T17:13:34.949Z,0.00
2022-11-24T17:16:05.537Z,0.00
2022-11-24T17:18:34.810Z,0.10
2022-11-24T17:21:09.104Z,0.10
2022-11-24T17:23:37.819Z,0.10
2022-11-24T17:26:09.798Z,0.20
2022-11-24T17:28:38.262Z,0.20
2022-11-24T17:31:09.643Z,0.10
2022-11-24T17:33:41.654Z,0.10
2022-11-24T17:36:10.525Z,0.20
2022-11-24T17:38:38.532Z,0.20
2022-11-24T17:41:08.505Z,0.20
2022-11-24T17:43:36.573Z,0.30
2022-11-24T17:46:05.890Z,0.30
2022-11-24T17:48:34.470Z,0.20
2022-11-24T17:51:04.329Z,0.10
2022-11-24T17:53:32.947Z,0.00
2022-11-24T17:56:01.476Z,0.10
2022-11-24T17:58:31.414Z,0.10
2022-11-24T18:00:59.727Z,0.20
2022-11-24T18:03:32.277Z,0.20
2022-11-24T18:06:06.258Z,0.20
2022-11-24T18:08:34.891Z,0.20
2022-11-24T18:11:07.059Z,0.20
2022-11-24T18:16:27.906Z,0.10
2022-11-24T18:19:07.726Z,0.10
2022-11-24T18:21:37.192Z,0.00
2022-11-24T18:24:05.442Z,0.10
2022-11-24T18:26:33.398Z,0.10
2022-11-24T18:29:02.971Z,0.10
2022-11-24T18:31:32.326Z,0.10
2022-11-24T18:34:00.898Z,0.10
2022-11-24T18:36:30.828Z,0.10
2022-11-24T18:39:00.942Z,0.10
2022-11-24T18:41:28.872Z,0.10
2022-11-24T18:43:56.959Z,0.00
2022-11-24T18:46:26.357Z,0.10
2022-11-24T18:48:54.442Z,0.10
2022-11-24T18:51:23.440Z,0.10
2022-11-24T18:53:54.321Z,0.10
2022-11-24T18:56:22.331Z,0.10
2022-11-24T18:58:53.689Z,0.10
2022-11-24T19:01:23.441Z,0.10
2022-11-24T19:03:54.496Z,0.10
2022-11-24T19:06:24.037Z,0.10
2022-11-24T19:08:54.744Z,0.10
2022-11-24T19:11:24.438Z,0.10
2022-11-24T19:13:52.544Z,0.10
2022-11-24T19:16:22.188Z,0.00
2022-11-24T19:18:54.365Z,0.10
2022-11-24T19:21:23.221Z,0.10
2022-11-24T19:23:51.264Z,0.00
2022-11-24T19:26:19.729Z,0.00
2022-11-24T19:28:47.720Z,0.00
2022-11-24T19:31:18.035Z,0.10
2022-11-24T19:33:46.528Z,0.10
2022-11-24T19:36:17.444Z,0.10
2022-11-24T19:38:50.960Z,0.10
2022-11-24T19:41:20.671Z,0.10
2022-11-24T19:43:49.151Z,0.10
2022-11-24T19:46:18.852Z,0.20
2022-11-24T19:48:50.117Z,0.20
2022-11-24T19:51:21.556Z,0.10
2022-11-24T19:53:49.599Z,0.20
2022-11-24T19:56:19.408Z,0.20
2022-11-24T19:58:48.226Z,0.20
2022-11-24T20:01:17.768Z,0.20
2022-11-24T20:03:47.726Z,0.20
2022-11-24T20:06:16.657Z,0.20
2022-11-24T20:08:46.110Z,0.30
2022-11-24T20:11:15.778Z,0.30
2022-11-24T20:13:45.275Z,0.30
2022-11-24T20:16:14.463Z,0.30
2022-11-24T20:18:44.548Z,0.30
2022-11-24T20:21:17.899Z,0.30
2022-11-24T20:23:52.670Z,0.20
2022-11-24T20:26:23.010Z,0.30
2022-11-24T20:28:51.651Z,0.30
2022-11-24T20:31:22.735Z,0.30
2022-11-24T20:33:51.612Z,0.30
2022-11-24T20:36:21.284Z,0.40
2022-11-24T20:38:51.865Z,0.30
2022-11-24T20:41:22.720Z,0.30
2022-11-24T20:43:51.710Z,0.30
2022-11-24T20:46:21.702Z,0.30
2022-11-24T20:48:50.347Z,0.30
2022-11-24T20:51:21.373Z,0.30
2022-11-24T20:53:51.213Z,0.30
2022-11-24T20:56:20.977Z,0.40
2022-11-24T20:58:49.396Z,0.20
2022-11-24T21:01:19.690Z,0.20
2022-11-24T21:03:52.433Z,0.10
2022-11-24T21:06:20.433Z,0.10
2022-11-24T21:08:50.544Z,0.20
2022-11-24T21:11:19.380Z,0.20
2022-11-24T21:13:48.663Z,0.30
2022-11-24T21:16:18.418Z,0.20
2022-11-24T21:18:48.011Z,0.10
2022-11-24T21:21:15.998Z,0.20
2022-11-24T21:23:45.090Z,0.10
2022-11-24T21:26:17.162Z,0.10
2022-11-24T21:28:46.802Z,0.10
2022-11-24T21:31:16.950Z,0.10
2022-11-24T21:33:46.258Z,0.10
2022-11-24T21:36:15.466Z,0.20
2022-11-24T21:38:43.732Z,0.10
2022-11-24T21:41:14.163Z,0.20
2022-11-24T21:43:42.108Z,0.20
2022-11-24T21:46:11.971Z,0.20
2022-11-24T21:48:41.741Z,0.20
2022-11-24T21:51:13.154Z,0.10
2022-11-24T21:53:41.291Z,0.10
2022-11-24T21:56:12.825Z,0.00
2022-11-24T21:58:47.251Z,0.00
2022-11-24T22:01:16.369Z,0.10
2022-11-24T22:03:44.638Z,0.10
2022-11-24T22:06:13.269Z,0.10
2022-11-24T22:08:41.274Z,0.00
2022-11-24T22:11:12.741Z,0.00
2022-11-24T22:13:40.904Z,0.10
2022-11-24T22:16:12.444Z,0.10
2022-11-24T22:18:42.211Z,0.10
2022-11-24T22:21:13.253Z,0.10
2022-11-24T22:23:41.292Z,0.10
2022-11-24T22:26:12.722Z,0.20
2022-11-24T22:28:41.100Z,0.20
2022-11-24T22:31:12.974Z,0.20
2022-11-24T22:33:41.381Z,0.20
2022-11-24T22:36:10.896Z,0.00
2022-11-24T22:38:39.246Z,0.10
2022-11-24T22:41:09.348Z,0.10
2022-11-24T22:43:38.622Z,0.20
2022-11-24T22:46:08.440Z,0.30
2022-11-24T22:48:38.551Z,0.30
2022-11-24T22:51:08.031Z,0.20
2022-11-24T22:53:36.353Z,0.20
2022-11-24T22:56:05.307Z,0.20
2022-11-24T22:58:36.879Z,0.20
2022-11-24T23:01:06.310Z,0.20
2022-11-24T23:03:34.932Z,0.20
2022-11-24T23:06:07.029Z,0.20
2022-11-24T23:08:36.072Z,0.20
2022-11-24T23:11:06.857Z,0.20
2022-11-24T23:13:35.428Z,0.10
2022-11-24T23:16:04.933Z,0.20
2022-11-24T23:18:33.273Z,0.10
2022-11-24T23:21:07.719Z,0.20
2022-11-24T23:23:36.162Z,0.20
2022-11-24T23:26:05.681Z,0.10
2022-11-24T23:28:33.665Z,0.20
2022-11-24T23:31:02.668Z,0.20
2022-11-24T23:33:30.854Z,0.20
2022-11-24T23:36:02.175Z,0.20
2022-11-24T23:38:33.345Z,0.20
2022-11-24T23:41:04.409Z,0.20
2022-11-24T23:43:32.895Z,0.10
2022-11-24T23:46:04.878Z,0.10
2022-11-24T23:48:32.984Z,0.10
2022-11-24T23:51:05.299Z,0.10
2022-11-24T23:53:35.504Z,0.20
2022-11-24T23:56:04.557Z,0.10
2022-11-24T23:58:32.921Z,0.10
